This is the latest recevied weather packets stored in our database for station/object JH7MHZ-13. If no packets are shown the sender has not sent any weather packets the latest 10 day(s).
| Time | Temp. | Humidity | Pressure | Rain* | Wind** | Luminosity | Snow |
|---|---|---|---|---|---|---|---|
| 1777500398 | 8.33° C | 79% | 1001.5 hPa | 0 mm | - | - | - |
| 1777496797 | 5° C | 89% | 1001.5 hPa | 0 mm | - | - | - |
| 1777493197 | 2.78° C | 93% | 1001.1 hPa | 0 mm | - | - | - |
| 1777489596 | 3.89° C | 93% | 1000.8 hPa | 0 mm | - | - | - |
| 1777485996 | 4.44° C | 91% | 1000.6 hPa | 0 mm | - | - | - |
| 1777482395 | 5.56° C | 91% | 1000.2 hPa | 0 mm | - | - | - |
| 1777478795 | 5.56° C | 90% | 1000.2 hPa | 0 mm | - | - | - |
| 1777475194 | 6.11° C | 90% | 1000.3 hPa | 0 mm | - | - | - |
| 1777471593 | 6.11° C | 90% | 1000.1 hPa | 0 mm | - | - | - |
| 1777467994 | 5.56° C | 90% | 999.6 hPa | 0 mm | - | - | - |
| 1777464392 | 6.11° C | 88% | 998.8 hPa | 0 mm | - | - | - |
| 1777460792 | 6.67° C | 85% | 997.8 hPa | 0 mm | - | - | - |
| 1777457191 | 8.33° C | 77% | 996.5 hPa | 0 mm | - | - | - |
| 1777453592 | 10° C | 70% | 995.5 hPa | 0 mm | - | - | - |
| 1777449991 | 12.22° C | 56% | 994.5 hPa | 0 mm | - | - | - |
| 1777446389 | 13.89° C | 53% | 993.8 hPa | 0 mm | - | - | - |
| 1777442789 | 13.33° C | 61% | 993.2 hPa | 0 mm | - | - | - |
| 1777439188 | 15.56° C | 50% | 992.7 hPa | 0 mm | - | - | - |
| 1777435589 | 15.56° C | 51% | 993.3 hPa | 0 mm | - | - | - |
| 1777431987 | 13.89° C | 64% | 993.3 hPa | 0 mm | - | - | - |
| 1777428387 | 11.11° C | 86% | 993.7 hPa | 0 mm | - | - | - |
| 1777424786 | 8.89° C | 91% | 994.2 hPa | 0 mm | - | - | - |
| 1777421187 | 7.78° C | 97% | 994 hPa | 0 mm | - | - | - |
| 1777417585 | 6.67° C | 98% | 993.5 hPa | 0 mm | - | - | - |
| 1777413984 | 6.67° C | 98% | 993.3 hPa | 0 mm | - | - | - |
* Rain latest hour (hover to see other rain measurements)
** Current wind speed in m/s (hover to see current wind gust speed)